createdAt,value
2018-03-14T00:00:45.674Z,0.00
2018-03-14T00:01:45.666Z,0.00
2018-03-14T00:02:45.658Z,0.00
2018-03-14T00:03:45.652Z,0.00
2018-03-14T00:04:45.643Z,0.00
2018-03-14T00:05:45.637Z,0.00
2018-03-14T00:06:45.628Z,0.00
2018-03-14T00:07:45.620Z,0.00
2018-03-14T00:08:45.610Z,0.00
2018-03-14T00:09:45.601Z,0.00
2018-03-14T00:10:45.595Z,0.00
2018-03-14T00:11:45.583Z,0.00
2018-03-14T00:12:45.574Z,0.00
2018-03-14T00:13:45.566Z,0.00
2018-03-14T00:14:45.558Z,0.00
2018-03-14T00:15:45.549Z,0.00
2018-03-14T00:16:45.541Z,0.00
2018-03-14T00:17:45.532Z,0.00
2018-03-14T00:18:45.525Z,0.00
2018-03-14T00:19:45.519Z,0.00
2018-03-14T00:20:45.511Z,0.00
2018-03-14T00:21:45.502Z,0.00
2018-03-14T00:22:45.495Z,0.00
2018-03-14T00:23:45.486Z,0.00
2018-03-14T00:24:45.478Z,0.00
2018-03-14T00:25:45.470Z,0.00
2018-03-14T00:26:45.460Z,0.00
2018-03-14T00:27:45.450Z,0.00
2018-03-14T00:28:45.441Z,0.00
2018-03-14T00:29:45.434Z,0.00
2018-03-14T00:30:45.426Z,0.00
2018-03-14T00:31:45.416Z,0.00
2018-03-14T00:32:45.408Z,0.00
2018-03-14T00:33:45.400Z,0.00
2018-03-14T00:34:45.392Z,0.00
2018-03-14T00:35:45.386Z,0.00
2018-03-14T00:36:45.378Z,0.00
2018-03-14T00:37:45.369Z,0.00
2018-03-14T00:38:45.361Z,0.00
2018-03-14T00:39:45.353Z,0.00
2018-03-14T00:40:45.344Z,0.00
2018-03-14T00:41:45.336Z,0.00
2018-03-14T00:42:45.329Z,0.00
2018-03-14T00:43:45.318Z,0.00
2018-03-14T00:44:45.308Z,0.00
2018-03-14T00:45:45.300Z,0.00
2018-03-14T00:46:45.292Z,0.00
2018-03-14T00:47:45.288Z,0.00
2018-03-14T00:48:45.277Z,0.00
2018-03-14T00:49:45.269Z,0.00
2018-03-14T00:50:45.262Z,0.00
2018-03-14T00:51:45.251Z,0.00
2018-03-14T00:52:45.242Z,0.00
2018-03-14T00:53:45.234Z,0.00
2018-03-14T00:54:45.226Z,0.00
2018-03-14T00:55:45.218Z,0.00
2018-03-14T00:56:45.208Z,0.00
2018-03-14T00:57:45.200Z,0.00
2018-03-14T00:58:45.193Z,0.00
2018-03-14T00:59:45.186Z,0.00
2018-03-14T01:00:45.183Z,0.00
2018-03-14T01:01:45.170Z,0.00
2018-03-14T01:02:45.164Z,0.00
2018-03-14T01:03:45.155Z,0.00
2018-03-14T01:04:45.144Z,0.00
2018-03-14T01:05:45.136Z,0.00
2018-03-14T01:06:45.129Z,0.00
2018-03-14T01:07:45.119Z,0.00
2018-03-14T01:08:45.109Z,0.00
2018-03-14T01:09:45.100Z,0.00
2018-03-14T01:10:45.094Z,0.00
2018-03-14T01:11:45.085Z,0.00
2018-03-14T01:12:45.076Z,0.00
2018-03-14T01:13:45.067Z,0.00
2018-03-14T01:14:45.060Z,0.00
2018-03-14T01:15:45.054Z,0.00
2018-03-14T01:16:45.043Z,0.00
2018-03-14T01:17:45.041Z,0.00
2018-03-14T01:18:45.029Z,0.00
2018-03-14T01:19:45.020Z,0.00
2018-03-14T01:20:45.011Z,0.00
2018-03-14T01:21:45.003Z,0.00
2018-03-14T01:22:44.994Z,0.00
2018-03-14T01:23:44.984Z,0.00
2018-03-14T01:24:44.975Z,0.00
2018-03-14T01:25:44.967Z,0.00
2018-03-14T01:26:44.959Z,0.00
2018-03-14T01:27:44.950Z,0.00
2018-03-14T01:28:44.943Z,0.00
2018-03-14T01:29:44.932Z,0.00
2018-03-14T01:30:44.926Z,0.00
2018-03-14T01:31:44.921Z,0.00
2018-03-14T01:32:44.911Z,0.00
2018-03-14T01:33:44.904Z,0.00
2018-03-14T01:34:44.895Z,0.00
2018-03-14T01:35:44.887Z,0.00
2018-03-14T01:36:44.877Z,0.00
2018-03-14T01:37:44.870Z,0.00
2018-03-14T01:38:44.863Z,0.00
2018-03-14T01:39:44.851Z,0.00
2018-03-14T01:40:44.841Z,0.00
2018-03-14T01:41:44.834Z,0.00
2018-03-14T01:42:44.825Z,0.00
2018-03-14T01:43:44.818Z,0.00
2018-03-14T01:44:44.808Z,0.00
2018-03-14T01:45:44.799Z,0.00
2018-03-14T01:46:44.792Z,0.00
2018-03-14T01:47:44.786Z,0.00
2018-03-14T01:48:44.779Z,0.00
2018-03-14T01:49:44.770Z,0.00
2018-03-14T01:50:44.762Z,0.00
2018-03-14T01:51:44.750Z,0.00
2018-03-14T01:52:44.741Z,0.00
2018-03-14T01:53:44.733Z,0.00
2018-03-14T01:54:44.724Z,0.00
2018-03-14T01:55:44.719Z,0.00
2018-03-14T01:56:44.711Z,0.00
2018-03-14T01:57:44.707Z,0.00
2018-03-14T01:58:44.694Z,0.00
2018-03-14T01:59:44.690Z,0.00
2018-03-14T02:00:44.680Z,0.00
2018-03-14T02:01:44.685Z,0.00
2018-03-14T02:02:44.660Z,0.00
2018-03-14T02:03:44.650Z,0.00
2018-03-14T02:04:44.641Z,0.00
2018-03-14T02:05:44.633Z,0.00
2018-03-14T02:06:44.627Z,0.00
2018-03-14T02:07:44.626Z,0.00
2018-03-14T02:08:44.608Z,0.00
2018-03-14T02:09:44.600Z,0.00
2018-03-14T02:10:44.592Z,0.00
2018-03-14T02:11:44.586Z,0.00
2018-03-14T02:12:44.577Z,0.00
2018-03-14T02:13:44.571Z,0.00
2018-03-14T02:14:44.562Z,0.00
2018-03-14T02:15:44.554Z,0.00
2018-03-14T02:16:44.548Z,0.00
2018-03-14T02:17:44.541Z,0.00
2018-03-14T02:18:44.526Z,0.00
2018-03-14T02:19:44.518Z,0.00
2018-03-14T02:20:44.509Z,0.00
2018-03-14T02:21:44.501Z,0.00
2018-03-14T02:22:44.493Z,0.00
2018-03-14T02:23:44.483Z,0.00
2018-03-14T02:24:44.476Z,0.00
2018-03-14T02:25:44.468Z,0.00
2018-03-14T02:26:44.459Z,0.00
2018-03-14T02:27:44.455Z,0.00
2018-03-14T02:28:44.445Z,0.00
2018-03-14T02:29:44.438Z,0.00
2018-03-14T02:30:44.429Z,0.00
2018-03-14T02:31:44.421Z,0.00
2018-03-14T02:32:44.413Z,0.00
2018-03-14T02:33:44.404Z,0.00
2018-03-14T02:34:44.397Z,0.00
2018-03-14T02:35:44.386Z,0.00
2018-03-14T02:36:44.377Z,0.00
2018-03-14T02:37:44.369Z,0.00
2018-03-14T02:38:44.361Z,0.00
2018-03-14T02:39:44.354Z,0.00
2018-03-14T02:40:44.343Z,0.00
2018-03-14T02:41:44.336Z,0.00
2018-03-14T02:42:44.331Z,0.00
2018-03-14T02:43:44.322Z,0.00
2018-03-14T02:44:44.315Z,0.00
2018-03-14T02:45:44.307Z,0.00
2018-03-14T02:46:44.298Z,0.00
2018-03-14T02:47:44.290Z,0.00
2018-03-14T02:48:44.281Z,0.00
2018-03-14T02:49:44.273Z,0.00
2018-03-14T02:50:44.265Z,0.00
2018-03-14T02:51:44.254Z,0.00
2018-03-14T02:52:44.247Z,0.00
2018-03-14T02:53:44.238Z,0.00
2018-03-14T02:54:44.230Z,0.00
2018-03-14T02:55:44.225Z,0.00
2018-03-14T02:56:44.215Z,0.00
2018-03-14T02:57:44.207Z,0.00
2018-03-14T02:58:44.200Z,0.00
2018-03-14T02:59:44.189Z,0.00
2018-03-14T03:00:44.179Z,0.00
2018-03-14T03:01:44.173Z,0.00
2018-03-14T03:02:44.163Z,0.00
2018-03-14T03:03:44.160Z,0.00
2018-03-14T03:04:44.148Z,0.00
2018-03-14T03:05:44.139Z,0.00
2018-03-14T03:06:44.130Z,0.00
2018-03-14T03:07:44.127Z,0.00
2018-03-14T03:08:44.116Z,0.00
2018-03-14T03:09:44.109Z,0.00
2018-03-14T03:10:44.101Z,0.00
2018-03-14T03:11:44.093Z,0.00
2018-03-14T03:12:44.111Z,0.00
2018-03-14T03:13:44.076Z,0.00
2018-03-14T03:14:44.067Z,0.00
2018-03-14T03:15:44.057Z,0.00
2018-03-14T03:16:44.048Z,0.00
2018-03-14T03:17:44.041Z,0.00
2018-03-14T03:18:44.032Z,0.00
2018-03-14T03:19:44.026Z,0.00
2018-03-14T03:20:44.016Z,0.00
2018-03-14T03:21:44.007Z,0.00
2018-03-14T03:22:43.999Z,0.00
2018-03-14T03:23:43.995Z,0.00
2018-03-14T03:24:43.986Z,0.00
2018-03-14T03:25:43.977Z,0.00
2018-03-14T03:26:43.972Z,0.00
2018-03-14T03:27:43.962Z,0.00
2018-03-14T03:28:43.953Z,0.00
2018-03-14T03:29:43.945Z,0.00
2018-03-14T03:30:43.939Z,0.00
2018-03-14T03:31:43.928Z,0.00
2018-03-14T03:32:43.917Z,0.00
2018-03-14T03:33:43.910Z,0.00
2018-03-14T03:34:43.900Z,0.00
2018-03-14T03:35:43.894Z,0.00
2018-03-14T03:36:43.884Z,0.00
2018-03-14T03:37:43.876Z,0.00
2018-03-14T03:38:43.869Z,0.00
2018-03-14T03:39:43.863Z,0.00
2018-03-14T03:40:43.854Z,0.00
2018-03-14T03:41:43.847Z,0.00
2018-03-14T03:42:43.839Z,0.00
2018-03-14T03:43:43.831Z,0.00
2018-03-14T03:44:43.822Z,0.00
2018-03-14T03:45:43.815Z,0.00
2018-03-14T03:46:43.806Z,0.00
2018-03-14T03:47:43.796Z,0.00
2018-03-14T03:48:43.786Z,0.00
2018-03-14T03:49:43.779Z,0.00
2018-03-14T03:50:43.771Z,0.00
2018-03-14T03:51:43.764Z,0.00
2018-03-14T03:52:43.754Z,0.00
2018-03-14T03:53:43.747Z,0.00
2018-03-14T03:54:43.739Z,0.00
2018-03-14T03:55:43.734Z,0.00
2018-03-14T03:56:43.724Z,0.00
2018-03-14T03:57:43.716Z,0.00
2018-03-14T03:58:43.708Z,0.00
2018-03-14T03:59:43.701Z,0.00
2018-03-14T04:00:43.692Z,0.00
2018-03-14T04:01:43.683Z,0.00
2018-03-14T04:02:43.677Z,0.00
2018-03-14T04:03:43.666Z,0.00
2018-03-14T04:04:43.657Z,0.00
2018-03-14T04:05:43.649Z,0.00
2018-03-14T04:06:43.644Z,0.00
2018-03-14T04:07:43.633Z,0.00
2018-03-14T04:08:43.624Z,0.00
2018-03-14T04:09:43.616Z,0.00
2018-03-14T04:10:43.609Z,0.00
2018-03-14T04:11:43.602Z,0.00
2018-03-14T04:12:43.593Z,0.00
2018-03-14T04:13:43.586Z,0.00
2018-03-14T04:14:43.580Z,0.00
2018-03-14T04:15:43.571Z,0.00
2018-03-14T04:16:43.562Z,0.00
2018-03-14T04:17:43.556Z,0.00
2018-03-14T04:18:43.549Z,0.00
2018-03-14T04:19:43.535Z,0.00
2018-03-14T04:20:43.526Z,0.00
2018-03-14T04:21:43.518Z,0.00
2018-03-14T04:22:43.511Z,0.00
2018-03-14T04:23:43.504Z,0.00
2018-03-14T04:24:43.494Z,0.00
2018-03-14T04:25:43.485Z,0.00
2018-03-14T04:26:43.477Z,0.00
2018-03-14T04:27:43.472Z,0.00
2018-03-14T04:28:43.464Z,0.00
2018-03-14T04:29:43.456Z,0.00
2018-03-14T04:30:43.448Z,0.00
2018-03-14T04:31:43.440Z,0.00
2018-03-14T04:32:43.431Z,0.00
2018-03-14T04:33:43.423Z,0.00
2018-03-14T04:34:43.416Z,0.00
2018-03-14T04:35:43.405Z,0.00
2018-03-14T04:36:43.395Z,0.00
2018-03-14T04:37:43.388Z,0.00
2018-03-14T04:38:43.380Z,0.00
2018-03-14T04:39:43.371Z,0.00
2018-03-14T04:40:43.362Z,0.00
2018-03-14T04:41:43.362Z,0.00
2018-03-14T04:42:43.347Z,0.00
2018-03-14T04:43:43.341Z,0.00
2018-03-14T04:44:43.333Z,0.00
2018-03-14T04:45:43.325Z,0.00
2018-03-14T04:46:43.320Z,0.00
2018-03-14T04:47:43.308Z,0.00
2018-03-14T04:48:43.299Z,0.00
2018-03-14T04:49:43.298Z,0.00
2018-03-14T04:50:43.284Z,0.00
2018-03-14T04:51:43.272Z,0.00
2018-03-14T04:52:43.264Z,0.00
2018-03-14T04:53:43.262Z,0.00
2018-03-14T04:54:43.248Z,0.00
2018-03-14T04:55:43.242Z,0.00
2018-03-14T04:56:43.232Z,0.00
2018-03-14T04:57:43.224Z,0.00
2018-03-14T04:58:43.216Z,0.00
2018-03-14T04:59:43.210Z,0.00
2018-03-14T05:00:43.201Z,0.00
2018-03-14T05:01:43.194Z,0.00
2018-03-14T05:02:43.186Z,0.00
2018-03-14T05:03:43.174Z,0.00
2018-03-14T05:04:43.165Z,0.00
2018-03-14T05:05:43.157Z,0.00
2018-03-14T05:06:43.150Z,0.00
2018-03-14T05:07:43.144Z,0.00
2018-03-14T05:08:43.136Z,0.00
2018-03-14T05:09:43.127Z,0.00
2018-03-14T05:10:43.126Z,0.00
2018-03-14T05:11:43.113Z,0.00
2018-03-14T05:12:43.102Z,0.00
2018-03-14T05:13:43.095Z,0.00
2018-03-14T05:14:43.087Z,0.00
2018-03-14T05:15:43.075Z,0.00
2018-03-14T05:16:43.067Z,0.00
2018-03-14T05:17:43.059Z,0.00
2018-03-14T05:18:43.049Z,0.00
2018-03-14T05:19:43.046Z,0.00
2018-03-14T05:20:43.033Z,0.00
2018-03-14T05:21:43.025Z,0.00
2018-03-14T05:22:43.018Z,0.00
2018-03-14T05:23:43.013Z,0.00
2018-03-14T05:24:43.004Z,4.00
2018-03-14T05:25:42.995Z,4.00
2018-03-14T05:26:43.007Z,4.00
2018-03-14T05:27:42.981Z,4.00
2018-03-14T05:28:42.970Z,4.00
2018-03-14T05:29:42.962Z,4.00
2018-03-14T05:30:42.955Z,8.00
2018-03-14T05:31:42.944Z,12.00
2018-03-14T05:32:42.934Z,12.00
2018-03-14T05:33:42.927Z,16.00
2018-03-14T05:34:42.918Z,16.00
2018-03-14T05:35:42.910Z,20.00
2018-03-14T05:36:42.902Z,24.00
2018-03-14T05:37:42.892Z,28.00
2018-03-14T05:38:42.885Z,40.00
2018-03-14T05:39:42.881Z,44.00
2018-03-14T05:40:42.871Z,56.00
2018-03-14T05:41:42.863Z,60.00
2018-03-14T05:42:42.855Z,64.00
2018-03-14T05:43:42.847Z,76.00
2018-03-14T05:44:42.837Z,76.00
2018-03-14T05:45:42.829Z,76.00
2018-03-14T05:46:42.821Z,84.00
2018-03-14T05:47:42.810Z,96.00
2018-03-14T05:48:42.805Z,104.00
2018-03-14T05:49:42.793Z,112.00
2018-03-14T05:50:42.784Z,112.00
2018-03-14T05:51:42.776Z,120.00
2018-03-14T05:52:42.768Z,120.00
2018-03-14T05:53:42.758Z,128.00
2018-03-14T05:54:42.751Z,136.00
2018-03-14T05:55:42.745Z,148.00
2018-03-14T05:56:42.740Z,156.00
2018-03-14T05:57:42.728Z,168.00
2018-03-14T05:58:42.719Z,188.00
2018-03-14T05:59:42.714Z,212.00
2018-03-14T06:00:42.703Z,228.00
2018-03-14T06:01:42.695Z,248.00
2018-03-14T06:02:42.685Z,280.00
2018-03-14T06:03:42.676Z,328.00
2018-03-14T06:04:42.667Z,388.00
2018-03-14T06:05:42.657Z,440.00
2018-03-14T06:06:42.648Z,488.00
2018-03-14T06:07:42.642Z,540.00
2018-03-14T06:08:42.633Z,596.00
2018-03-14T06:09:42.625Z,652.00
2018-03-14T06:10:42.617Z,712.00
2018-03-14T06:11:42.606Z,756.00
2018-03-14T06:12:42.596Z,816.00
2018-03-14T06:13:42.587Z,836.00
2018-03-14T06:14:42.580Z,820.00
2018-03-14T06:15:42.570Z,796.00
2018-03-14T06:16:42.615Z,780.00
2018-03-14T06:17:42.553Z,768.00
2018-03-14T06:18:42.544Z,824.00
2018-03-14T06:19:42.539Z,900.00
2018-03-14T06:20:42.535Z,928.00
2018-03-14T06:21:42.523Z,928.00
2018-03-14T06:22:42.516Z,932.00
2018-03-14T06:23:42.505Z,912.00
2018-03-14T06:24:42.497Z,948.00
2018-03-14T06:25:42.488Z,1012.00
2018-03-14T06:26:42.480Z,1052.00
2018-03-14T06:27:42.468Z,1036.00
2018-03-14T06:28:42.462Z,1004.00
2018-03-14T06:29:42.450Z,1036.00
2018-03-14T06:30:42.442Z,1096.00
2018-03-14T06:31:42.432Z,1224.00
2018-03-14T06:32:42.429Z,1272.00
2018-03-14T06:33:42.418Z,1276.00
2018-03-14T06:34:42.409Z,1352.00
2018-03-14T06:35:42.404Z,1472.00
2018-03-14T06:36:42.393Z,1448.00
2018-03-14T06:37:42.386Z,1488.00
2018-03-14T06:38:42.377Z,1492.00
2018-03-14T06:39:42.369Z,1532.00
2018-03-14T06:40:42.359Z,1592.00
2018-03-14T06:41:42.353Z,1628.00
2018-03-14T06:42:42.343Z,1760.00
2018-03-14T06:43:42.333Z,2032.00
2018-03-14T06:44:42.323Z,2392.00
2018-03-14T06:45:42.316Z,2616.00
2018-03-14T06:46:42.308Z,2804.00
2018-03-14T06:47:42.301Z,3036.00
2018-03-14T06:48:42.292Z,3328.00
2018-03-14T06:49:42.284Z,3632.00
2018-03-14T06:50:42.276Z,3764.00
2018-03-14T06:51:42.270Z,3748.00
2018-03-14T06:52:42.262Z,3796.00
2018-03-14T06:53:42.254Z,3916.00
2018-03-14T06:54:42.246Z,4176.00
2018-03-14T06:55:42.239Z,4284.00
2018-03-14T06:56:42.231Z,4324.00
2018-03-14T06:57:42.223Z,4584.00
2018-03-14T06:58:42.214Z,4376.00
2018-03-14T06:59:42.205Z,10072.00
2018-03-14T07:00:42.198Z,5512.00
2018-03-14T07:01:42.188Z,8312.00
2018-03-14T07:02:42.180Z,6352.00
2018-03-14T07:03:42.174Z,5760.00
2018-03-14T07:04:42.166Z,4408.00
2018-03-14T07:05:42.157Z,4536.00
2018-03-14T07:06:42.151Z,7528.00
2018-03-14T07:07:42.147Z,7484.00
2018-03-14T07:08:42.141Z,7484.00
2018-03-14T07:09:42.134Z,7692.00
2018-03-14T07:10:42.127Z,8232.00
2018-03-14T07:11:42.119Z,7616.00
2018-03-14T07:12:42.112Z,8488.00
2018-03-14T07:13:42.110Z,6940.00
2018-03-14T07:14:42.102Z,9012.00
2018-03-14T07:15:42.102Z,8720.00
2018-03-14T07:16:42.093Z,8304.00
2018-03-14T07:17:42.089Z,8976.00
2018-03-14T07:18:42.084Z,9664.00
2018-03-14T07:19:42.082Z,9756.00
2018-03-14T07:20:42.076Z,9764.00
2018-03-14T07:21:42.074Z,9980.00
2018-03-14T07:22:42.071Z,10216.00
2018-03-14T07:23:42.066Z,10708.00
2018-03-14T07:24:42.063Z,10344.00
2018-03-14T07:25:42.060Z,10360.00
2018-03-14T07:26:42.060Z,10444.00
2018-03-14T07:27:42.057Z,10104.00
2018-03-14T07:28:42.055Z,10380.00
2018-03-14T07:29:42.053Z,11092.00
2018-03-14T07:30:42.052Z,11140.00
2018-03-14T07:31:42.054Z,11312.00
2018-03-14T07:32:42.054Z,11284.00
2018-03-14T07:33:42.053Z,11932.00
2018-03-14T07:34:42.054Z,12128.00
2018-03-14T07:35:42.053Z,12264.00
2018-03-14T07:36:42.052Z,12556.00
2018-03-14T07:37:42.054Z,12340.00
2018-03-14T07:38:42.056Z,12404.00
2018-03-14T07:39:42.056Z,12956.00
2018-03-14T07:40:42.055Z,13956.00
2018-03-14T07:41:42.057Z,14140.00
2018-03-14T07:42:42.056Z,13748.00
2018-03-14T07:43:42.059Z,14176.00
2018-03-14T07:44:42.110Z,13620.00
2018-03-14T07:45:42.062Z,14464.00
2018-03-14T07:46:42.064Z,14336.00
2018-03-14T07:47:42.070Z,14656.00
2018-03-14T07:48:42.071Z,15072.00
2018-03-14T07:49:42.077Z,14944.00
2018-03-14T07:50:42.077Z,15648.00
2018-03-14T07:51:42.080Z,15456.00
2018-03-14T07:52:42.141Z,15168.00
2018-03-14T07:53:42.086Z,15904.00
2018-03-14T07:54:42.092Z,15872.00
2018-03-14T07:55:42.091Z,16640.00
2018-03-14T07:56:42.094Z,16832.00
2018-03-14T07:57:42.098Z,16480.00
2018-03-14T07:58:42.104Z,16160.00
2018-03-14T07:59:42.107Z,13816.00
2018-03-14T08:00:42.111Z,14624.00
2018-03-14T08:01:42.117Z,14944.00
2018-03-14T08:02:42.120Z,10648.00
2018-03-14T08:03:42.129Z,12884.00
2018-03-14T08:04:42.134Z,9708.00
2018-03-14T08:05:42.140Z,8912.00
2018-03-14T08:06:42.148Z,8340.00
2018-03-14T08:07:42.199Z,7832.00
2018-03-14T08:08:42.154Z,11704.00
2018-03-14T08:09:42.160Z,13580.00
2018-03-14T08:10:42.164Z,13660.00
2018-03-14T08:11:42.173Z,7720.00
2018-03-14T08:12:42.170Z,9224.00
2018-03-14T08:13:42.329Z,10588.00
2018-03-14T08:14:42.179Z,16352.00
2018-03-14T08:15:42.184Z,11600.00
2018-03-14T08:16:42.187Z,11444.00
2018-03-14T08:17:42.191Z,13764.00
2018-03-14T08:18:42.196Z,11960.00
2018-03-14T08:19:42.202Z,7472.00
2018-03-14T08:20:42.206Z,6596.00
2018-03-14T08:21:42.210Z,6024.00
2018-03-14T08:22:42.212Z,5696.00
2018-03-14T08:23:42.217Z,5672.00
2018-03-14T08:24:42.220Z,5868.00
2018-03-14T08:25:42.224Z,5428.00
2018-03-14T08:26:42.225Z,5040.00
2018-03-14T08:27:42.229Z,4760.00
2018-03-14T08:28:42.228Z,5660.00
2018-03-14T08:29:42.230Z,12944.00
2018-03-14T08:30:42.232Z,12840.00
2018-03-14T08:31:42.232Z,5664.00
2018-03-14T08:32:42.236Z,5420.00
2018-03-14T08:33:42.236Z,6296.00
2018-03-14T08:34:42.239Z,7224.00
2018-03-14T08:35:42.245Z,8296.00
2018-03-14T08:36:42.244Z,8336.00
2018-03-14T08:37:42.246Z,7088.00
2018-03-14T08:38:42.248Z,6880.00
2018-03-14T08:39:42.251Z,5784.00
2018-03-14T08:40:42.251Z,5744.00
2018-03-14T08:41:42.253Z,6040.00
2018-03-14T08:42:42.252Z,5960.00
2018-03-14T08:43:42.251Z,6288.00
2018-03-14T08:44:42.251Z,11096.00
2018-03-14T08:45:42.252Z,10592.00
2018-03-14T08:46:42.253Z,19296.00
2018-03-14T08:47:42.253Z,20608.00
2018-03-14T08:48:42.252Z,21472.00
2018-03-14T08:49:42.253Z,11616.00
2018-03-14T08:50:42.253Z,13912.00
2018-03-14T08:51:42.258Z,16448.00
2018-03-14T08:52:42.258Z,18752.00
2018-03-14T08:53:42.258Z,20352.00
2018-03-14T08:54:42.261Z,24160.00
2018-03-14T08:55:42.311Z,25696.00
2018-03-14T08:56:42.266Z,25696.00
2018-03-14T08:57:42.265Z,27520.00
2018-03-14T08:58:42.268Z,28704.00
2018-03-14T08:59:42.269Z,31616.00
2018-03-14T09:00:42.272Z,35136.00
2018-03-14T09:01:42.275Z,35232.00
2018-03-14T09:02:42.280Z,35136.00
2018-03-14T09:03:42.284Z,34656.00
2018-03-14T09:04:42.293Z,32512.00
2018-03-14T09:05:42.295Z,31328.00
2018-03-14T09:06:42.301Z,31360.00
2018-03-14T09:07:42.313Z,33024.00
2018-03-14T09:08:42.316Z,32512.00
2018-03-14T09:09:42.324Z,30560.00
2018-03-14T09:10:42.332Z,27232.00
2018-03-14T09:11:42.340Z,27360.00
2018-03-14T09:12:42.347Z,31264.00
2018-03-14T09:13:42.356Z,20096.00
2018-03-14T09:14:42.365Z,29536.00
2018-03-14T09:15:42.372Z,30464.00
2018-03-14T09:16:42.380Z,29824.00
2018-03-14T09:17:42.391Z,28448.00
2018-03-14T09:18:42.399Z,29568.00
2018-03-14T09:19:42.413Z,27872.00
2018-03-14T09:20:42.423Z,27744.00
2018-03-14T09:21:42.433Z,12172.00
2018-03-14T09:22:42.443Z,14840.00
2018-03-14T09:23:42.451Z,19136.00
2018-03-14T09:24:42.459Z,18720.00
2018-03-14T09:25:42.470Z,14176.00
2018-03-14T09:26:42.480Z,11980.00
2018-03-14T09:27:42.489Z,19296.00
2018-03-14T09:28:42.498Z,36096.00
2018-03-14T09:29:42.510Z,34688.00
2018-03-14T09:30:42.519Z,32704.00
2018-03-14T09:31:42.543Z,32544.00
2018-03-14T09:32:42.540Z,32128.00
2018-03-14T09:33:42.549Z,33856.00
2018-03-14T09:34:42.561Z,32320.00
2018-03-14T09:35:42.574Z,32544.00
2018-03-14T09:36:42.580Z,31392.00
2018-03-14T09:37:42.590Z,32576.00
2018-03-14T09:38:42.604Z,33472.00
2018-03-14T09:39:42.612Z,33440.00
2018-03-14T09:40:42.621Z,33440.00
2018-03-14T09:41:42.632Z,33344.00
2018-03-14T09:42:42.643Z,33792.00
2018-03-14T09:43:42.657Z,31232.00
2018-03-14T09:44:42.667Z,35520.00
2018-03-14T09:45:42.680Z,36320.00
2018-03-14T09:46:42.696Z,35168.00
2018-03-14T09:47:42.710Z,34784.00
2018-03-14T09:48:42.722Z,32096.00
2018-03-14T09:49:42.735Z,29696.00
2018-03-14T09:50:42.749Z,28608.00
2018-03-14T09:51:42.765Z,27776.00
2018-03-14T09:52:42.776Z,27296.00
2018-03-14T09:53:42.794Z,26432.00
2018-03-14T09:54:42.805Z,25824.00
2018-03-14T09:55:42.817Z,25504.00
2018-03-14T09:56:42.831Z,25440.00
2018-03-14T09:57:42.848Z,25216.00
2018-03-14T09:58:42.865Z,22720.00
2018-03-14T09:59:42.873Z,24576.00
2018-03-14T10:00:42.913Z,25792.00
2018-03-14T10:01:42.902Z,26272.00
2018-03-14T10:02:42.920Z,26656.00
2018-03-14T10:03:42.936Z,20576.00
2018-03-14T10:04:42.949Z,10632.00
2018-03-14T10:05:42.963Z,10456.00
2018-03-14T10:06:42.977Z,10376.00
2018-03-14T10:07:42.992Z,10764.00
2018-03-14T10:08:43.005Z,23424.00
2018-03-14T10:09:43.020Z,29792.00
2018-03-14T10:10:43.034Z,29760.00
2018-03-14T10:11:43.043Z,29344.00
2018-03-14T10:12:43.056Z,12960.00
2018-03-14T10:13:43.068Z,12588.00
2018-03-14T10:14:43.080Z,28192.00
2018-03-14T10:15:43.093Z,26144.00
2018-03-14T10:16:43.104Z,19936.00
2018-03-14T10:17:43.116Z,15384.00
2018-03-14T10:18:43.131Z,17408.00
2018-03-14T10:19:43.142Z,29152.00
2018-03-14T10:20:43.152Z,29408.00
2018-03-14T10:21:43.168Z,30208.00
2018-03-14T10:22:43.174Z,31328.00
2018-03-14T10:23:43.182Z,31936.00
2018-03-14T10:24:43.190Z,31680.00
2018-03-14T10:25:43.251Z,30848.00
2018-03-14T10:26:43.213Z,29824.00
2018-03-14T10:27:43.228Z,29184.00
2018-03-14T10:28:43.237Z,29088.00
2018-03-14T10:29:43.248Z,29952.00
2018-03-14T10:30:43.260Z,31616.00
2018-03-14T10:31:43.322Z,34528.00
2018-03-14T10:32:43.284Z,34912.00
2018-03-14T10:33:43.294Z,33344.00
2018-03-14T10:34:43.308Z,32416.00
2018-03-14T10:35:43.317Z,32992.00
2018-03-14T10:36:43.331Z,34592.00
2018-03-14T10:37:43.341Z,37440.00
2018-03-14T10:38:43.353Z,33152.00
2018-03-14T10:39:43.366Z,32320.00
2018-03-14T10:40:43.377Z,31968.00
2018-03-14T10:41:43.392Z,34240.00
2018-03-14T10:42:43.405Z,37728.00
2018-03-14T10:43:43.421Z,36096.00
2018-03-14T10:44:43.434Z,35616.00
2018-03-14T10:45:43.447Z,40768.00
2018-03-14T10:46:43.461Z,53600.00
2018-03-14T10:47:43.475Z,57952.00
2018-03-14T10:48:43.486Z,55008.00
2018-03-14T10:49:43.501Z,43520.00
2018-03-14T10:50:43.513Z,32992.00
2018-03-14T10:51:43.526Z,31264.00
2018-03-14T10:52:43.538Z,29312.00
2018-03-14T10:53:43.552Z,27616.00
2018-03-14T10:54:43.567Z,27072.00
2018-03-14T10:55:43.581Z,27264.00
2018-03-14T10:56:43.593Z,27520.00
2018-03-14T10:57:43.608Z,27200.00
2018-03-14T10:58:43.622Z,26848.00
2018-03-14T10:59:43.638Z,27040.00
2018-03-14T11:00:43.651Z,26272.00
2018-03-14T11:01:43.666Z,25536.00
2018-03-14T11:02:43.695Z,25472.00
2018-03-14T11:03:43.694Z,25408.00
2018-03-14T11:04:43.707Z,24992.00
2018-03-14T11:05:43.720Z,25184.00
2018-03-14T11:06:43.735Z,26528.00
2018-03-14T11:07:43.759Z,27104.00
2018-03-14T11:08:43.760Z,27776.00
2018-03-14T11:09:43.774Z,27584.00
2018-03-14T11:10:43.788Z,27648.00
2018-03-14T11:11:43.801Z,26848.00
2018-03-14T11:12:43.813Z,26560.00
2018-03-14T11:13:43.828Z,25856.00
2018-03-14T11:14:43.841Z,25184.00
2018-03-14T11:15:43.859Z,24256.00
2018-03-14T11:16:43.872Z,23648.00
2018-03-14T11:17:43.890Z,22880.00
2018-03-14T11:18:43.899Z,22784.00
2018-03-14T11:19:43.913Z,23040.00
2018-03-14T11:20:43.924Z,23136.00
2018-03-14T11:21:43.987Z,23200.00
2018-03-14T11:22:43.953Z,23136.00
2018-03-14T11:23:43.963Z,23168.00
2018-03-14T11:24:43.975Z,23264.00
2018-03-14T11:25:43.989Z,23008.00
2018-03-14T11:26:44.002Z,22912.00
2018-03-14T11:27:44.018Z,23808.00
2018-03-14T11:28:44.030Z,24704.00
2018-03-14T11:29:44.043Z,24320.00
2018-03-14T11:30:44.062Z,23360.00
2018-03-14T11:31:44.065Z,23136.00
2018-03-14T11:32:44.076Z,23520.00
2018-03-14T11:33:44.088Z,24480.00
2018-03-14T11:34:44.100Z,21312.00
2018-03-14T11:35:44.113Z,11272.00
2018-03-14T11:36:44.125Z,7540.00
2018-03-14T11:37:44.135Z,7064.00
2018-03-14T11:38:44.147Z,6892.00
2018-03-14T11:39:44.161Z,6808.00
2018-03-14T11:40:44.174Z,6748.00
2018-03-14T11:41:44.180Z,6744.00
2018-03-14T11:42:44.190Z,6796.00
2018-03-14T11:43:44.200Z,6884.00
2018-03-14T11:44:44.214Z,6844.00
2018-03-14T11:45:44.217Z,6772.00
2018-03-14T11:46:44.226Z,6776.00
2018-03-14T11:47:44.231Z,6792.00
2018-03-14T11:48:44.238Z,6792.00
2018-03-14T11:49:44.245Z,6752.00
2018-03-14T11:50:44.251Z,6600.00
2018-03-14T11:51:44.259Z,6592.00
2018-03-14T11:52:44.264Z,6560.00
2018-03-14T11:53:44.271Z,6504.00
2018-03-14T11:54:44.277Z,6456.00
2018-03-14T11:55:44.285Z,6472.00
2018-03-14T11:56:44.290Z,6436.00
2018-03-14T11:57:44.297Z,6444.00
2018-03-14T11:58:44.299Z,6492.00
2018-03-14T11:59:44.305Z,6556.00
2018-03-14T12:00:44.308Z,6640.00
2018-03-14T12:01:44.314Z,6640.00
2018-03-14T12:02:44.317Z,6556.00
2018-03-14T12:03:44.318Z,6436.00
2018-03-14T12:04:44.321Z,6396.00
2018-03-14T12:05:44.325Z,6404.00
2018-03-14T12:06:44.328Z,6476.00
2018-03-14T12:07:44.334Z,6584.00
2018-03-14T12:08:44.334Z,6528.00
2018-03-14T12:09:44.338Z,6480.00
2018-03-14T12:10:44.340Z,6408.00
2018-03-14T12:11:44.345Z,6176.00
2018-03-14T12:12:44.350Z,5988.00
2018-03-14T12:13:44.351Z,5844.00
2018-03-14T12:14:44.353Z,5652.00
2018-03-14T12:15:44.358Z,5524.00
2018-03-14T12:16:44.356Z,5468.00
2018-03-14T12:17:44.358Z,5440.00
2018-03-14T12:18:44.359Z,5408.00
2018-03-14T12:19:44.363Z,5360.00
2018-03-14T12:20:44.362Z,5324.00
2018-03-14T12:21:44.361Z,5272.00
2018-03-14T12:22:44.361Z,5236.00
2018-03-14T12:23:44.363Z,5196.00
2018-03-14T12:24:44.363Z,5164.00
2018-03-14T12:25:44.365Z,5152.00
2018-03-14T12:26:44.364Z,5100.00
2018-03-14T12:27:44.369Z,5056.00
2018-03-14T12:28:44.366Z,4988.00
2018-03-14T12:29:44.370Z,4956.00
2018-03-14T12:30:44.373Z,4928.00
2018-03-14T12:31:44.365Z,4932.00